South Wallingford, Vermont
Current Conditions -  °F | °C
As of 1:35 PM on Saturday 20 Dec 2014 (Local Time) from KRUT Reporting Station
Clear Clear  
Wind Chill: 21°   Ceiling: Unl
Heat Index: 27°   Visibility: 10mi
Dew Point: 16°   Wind: 5mph
Humidity: 64%   Direction: 20°NNE
Pressure: 30.24"   Gusts: NA
Location:  43.4377°N, 73.0014°W
Report Text: KRUT 201835Z 02004KT 10SM CLR M03/M09 A3024 RMK AO1
Loading
Personal Weather Stations






























Interactive Weather Map New forecast layout! Learn more

10-Day Weather Forecast

Advertisements
Track Severe Weather on mobile